sensor_id;sensor_type;location;lat;lon;timestamp;pressure;altitude;pressure_sealevel;temperature;humidity
46129;BME280;31860;45.186;5.790;2023-02-13T00:01:15;100997.19;;;8.10;56.56
46129;BME280;31860;45.186;5.790;2023-02-13T00:03:41;100995.53;;;8.12;55.73
46129;BME280;31860;45.186;5.790;2023-02-13T00:06:06;100990.53;;;8.18;55.25
46129;BME280;31860;45.186;5.790;2023-02-13T00:08:32;100993.94;;;8.16;54.60
46129;BME280;31860;45.186;5.790;2023-02-13T00:10:57;100994.94;;;8.19;54.71
46129;BME280;31860;45.186;5.790;2023-02-13T00:13:23;100992.13;;;8.15;55.00
46129;BME280;31860;45.186;5.790;2023-02-13T00:15:57;100993.63;;;8.08;55.22
46129;BME280;31860;45.186;5.790;2023-02-13T00:18:22;100994.28;;;8.03;55.66
46129;BME280;31860;45.186;5.790;2023-02-13T00:21:06;100995.66;;;7.93;56.64
46129;BME280;31860;45.186;5.790;2023-02-13T00:23:33;101006.56;;;7.85;56.64
46129;BME280;31860;45.186;5.790;2023-02-13T00:26:00;101000.28;;;7.80;57.11
46129;BME280;31860;45.186;5.790;2023-02-13T00:28:26;100994.09;;;7.76;57.92
46129;BME280;31860;45.186;5.790;2023-02-13T00:30:51;100996.50;;;7.72;59.04
46129;BME280;31860;45.186;5.790;2023-02-13T00:33:17;100991.22;;;7.70;59.30
46129;BME280;31860;45.186;5.790;2023-02-13T00:35:42;100998.22;;;7.71;59.41
46129;BME280;31860;45.186;5.790;2023-02-13T00:38:07;100997.28;;;7.69;59.54
46129;BME280;31860;45.186;5.790;2023-02-13T00:40:33;100998.34;;;7.74;59.21
46129;BME280;31860;45.186;5.790;2023-02-13T00:42:58;101006.09;;;7.73;59.45
46129;BME280;31860;45.186;5.790;2023-02-13T00:45:24;101006.88;;;7.72;59.66
46129;BME280;31860;45.186;5.790;2023-02-13T00:47:49;101002.47;;;7.69;59.50
46129;BME280;31860;45.186;5.790;2023-02-13T00:50:15;101000.63;;;7.66;59.71
46129;BME280;31860;45.186;5.790;2023-02-13T00:52:40;101002.38;;;7.67;59.23
46129;BME280;31860;45.186;5.790;2023-02-13T00:55:05;100998.91;;;7.67;59.19
46129;BME280;31860;45.186;5.790;2023-02-13T00:57:31;101000.50;;;7.63;59.62
46129;BME280;31860;45.186;5.790;2023-02-13T00:59:57;100998.53;;;7.58;59.87
46129;BME280;31860;45.186;5.790;2023-02-13T01:02:23;101001.75;;;7.52;60.09
46129;BME280;31860;45.186;5.790;2023-02-13T01:04:48;101000.75;;;7.49;60.57
46129;BME280;31860;45.186;5.790;2023-02-13T01:07:14;101006.78;;;7.48;61.38
46129;BME280;31860;45.186;5.790;2023-02-13T01:09:39;101008.44;;;7.46;61.99
46129;BME280;31860;45.186;5.790;2023-02-13T01:12:05;101009.25;;;7.45;62.29
46129;BME280;31860;45.186;5.790;2023-02-13T01:14:30;101011.03;;;7.46;62.00
46129;BME280;31860;45.186;5.790;2023-02-13T01:16:55;101017.19;;;7.48;61.83
46129;BME280;31860;45.186;5.790;2023-02-13T01:19:21;101012.00;;;7.48;61.52
46129;BME280;31860;45.186;5.790;2023-02-13T01:21:46;101019.63;;;7.45;61.86
46129;BME280;31860;45.186;5.790;2023-02-13T01:24:12;101021.28;;;7.43;61.87
46129;BME280;31860;45.186;5.790;2023-02-13T01:26:37;101032.53;;;7.42;62.10
46129;BME280;31860;45.186;5.790;2023-02-13T01:29:02;101039.31;;;7.38;62.17
46129;BME280;31860;45.186;5.790;2023-02-13T01:31:28;101046.97;;;7.35;62.45
46129;BME280;31860;45.186;5.790;2023-02-13T01:33:57;101039.16;;;7.35;63.42
46129;BME280;31860;45.186;5.790;2023-02-13T01:36:23;101038.25;;;7.33;63.76
46129;BME280;31860;45.186;5.790;2023-02-13T01:38:52;101040.00;;;7.34;63.97
46129;BME280;31860;45.186;5.790;2023-02-13T01:41:18;101046.78;;;7.31;64.27
46129;BME280;31860;45.186;5.790;2023-02-13T01:43:56;101039.88;;;7.31;64.73
46129;BME280;31860;45.186;5.790;2023-02-13T01:46:32;101032.09;;;7.31;64.11
46129;BME280;31860;45.186;5.790;2023-02-13T01:49:20;101033.84;;;7.32;64.40
46129;BME280;31860;45.186;5.790;2023-02-13T01:51:48;101039.16;;;7.35;62.63
46129;BME280;31860;45.186;5.790;2023-02-13T01:54:20;101041.84;;;7.37;61.99
46129;BME280;31860;45.186;5.790;2023-02-13T01:56:51;101038.47;;;7.39;61.19
46129;BME280;31860;45.186;5.790;2023-02-13T01:59:20;101034.09;;;7.38;61.07
46129;BME280;31860;45.186;5.790;2023-02-13T02:01:47;101039.44;;;7.41;60.66
46129;BME280;31860;45.186;5.790;2023-02-13T02:04:17;101046.34;;;7.41;60.44
46129;BME280;31860;45.186;5.790;2023-02-13T02:06:54;101040.94;;;7.36;61.15
46129;BME280;31860;45.186;5.790;2023-02-13T02:09:28;101045.88;;;7.30;61.70
46129;BME280;31860;45.186;5.790;2023-02-13T02:12:08;101045.72;;;7.26;62.27
46129;BME280;31860;45.186;5.790;2023-02-13T02:14:34;101035.09;;;7.21;62.87
46129;BME280;31860;45.186;5.790;2023-02-13T02:17:00;101041.19;;;7.22;63.87
46129;BME280;31860;45.186;5.790;2023-02-13T02:19:58;101038.66;;;7.23;65.19
46129;BME280;31860;45.186;5.790;2023-02-13T02:25:33;101048.03;;;7.20;64.94
46129;BME280;31860;45.186;5.790;2023-02-13T02:28:29;101043.53;;;7.16;65.31
46129;BME280;31860;45.186;5.790;2023-02-13T02:40:10;101038.13;;;7.11;64.16
46129;BME280;31860;45.186;5.790;2023-02-13T02:44:59;101028.75;;;7.15;63.25
46129;BME280;31860;45.186;5.790;2023-02-13T02:50:37;101042.63;;;7.15;63.88
46129;BME280;31860;45.186;5.790;2023-02-13T02:58:38;101030.88;;;7.04;65.53
46129;BME280;31860;45.186;5.790;2023-02-13T03:01:26;101028.91;;;6.99;65.06
46129;BME280;31860;45.186;5.790;2023-02-13T03:04:17;101034.00;;;6.96;66.04
46129;BME280;31860;45.186;5.790;2023-02-13T03:07:05;101023.44;;;6.93;67.08
46129;BME280;31860;45.186;5.790;2023-02-13T03:09:37;101031.16;;;6.91;67.57
46129;BME280;31860;45.186;5.790;2023-02-13T03:15:25;101031.56;;;6.81;68.27
46129;BME280;31860;45.186;5.790;2023-02-13T03:17:52;101029.66;;;6.77;68.85
46129;BME280;31860;45.186;5.790;2023-02-13T03:20:51;101034.78;;;6.76;70.12
46129;BME280;31860;45.186;5.790;2023-02-13T03:24:18;101032.19;;;6.76;71.19
46129;BME280;31860;45.186;5.790;2023-02-13T03:30:00;101031.13;;;6.70;71.30
46129;BME280;31860;45.186;5.790;2023-02-13T03:32:44;101025.84;;;6.69;70.42
46129;BME280;31860;45.186;5.790;2023-02-13T03:38:07;101032.63;;;6.65;69.92
46129;BME280;31860;45.186;5.790;2023-02-13T03:40:39;101046.34;;;6.63;69.79
46129;BME280;31860;45.186;5.790;2023-02-13T03:43:39;101041.09;;;6.61;70.41
46129;BME280;31860;45.186;5.790;2023-02-13T03:46:06;101047.91;;;6.59;70.25
46129;BME280;31860;45.186;5.790;2023-02-13T03:48:36;101045.31;;;6.59;70.19
46129;BME280;31860;45.186;5.790;2023-02-13T03:51:48;101044.47;;;6.60;69.92
46129;BME280;31860;45.186;5.790;2023-02-13T03:57:09;101047.03;;;6.59;69.35
46129;BME280;31860;45.186;5.790;2023-02-13T03:59:56;101053.03;;;6.58;70.30
46129;BME280;31860;45.186;5.790;2023-02-13T04:02:25;101058.31;;;6.59;70.50
46129;BME280;31860;45.186;5.790;2023-02-13T04:04:58;101054.06;;;6.61;70.73
46129;BME280;31860;45.186;5.790;2023-02-13T04:07:28;101047.16;;;6.62;70.44
46129;BME280;31860;45.186;5.790;2023-02-13T04:10:02;101055.69;;;6.59;70.64
46129;BME280;31860;45.186;5.790;2023-02-13T04:15:11;101051.19;;;6.55;70.76
46129;BME280;31860;45.186;5.790;2023-02-13T04:17:44;101050.28;;;6.55;70.72
46129;BME280;31860;45.186;5.790;2023-02-13T04:20:11;101056.31;;;6.54;70.39
46129;BME280;31860;45.186;5.790;2023-02-13T04:22:47;101063.28;;;6.55;70.98
46129;BME280;31860;45.186;5.790;2023-02-13T04:25:14;101067.56;;;6.54;70.42
46129;BME280;31860;45.186;5.790;2023-02-13T04:27:41;101061.34;;;6.51;70.20
46129;BME280;31860;45.186;5.790;2023-02-13T04:30:07;101065.69;;;6.50;70.82
46129;BME280;31860;45.186;5.790;2023-02-13T04:32:33;101068.16;;;6.49;70.86
46129;BME280;31860;45.186;5.790;2023-02-13T04:34:58;101068.41;;;6.53;69.58
46129;BME280;31860;45.186;5.790;2023-02-13T04:37:24;101067.66;;;6.56;69.37
46129;BME280;31860;45.186;5.790;2023-02-13T04:39:49;101069.19;;;6.52;68.52
46129;BME280;31860;45.186;5.790;2023-02-13T04:42:14;101076.91;;;6.51;68.91
46129;BME280;31860;45.186;5.790;2023-02-13T04:44:40;101075.16;;;6.50;68.80
46129;BME280;31860;45.186;5.790;2023-02-13T04:47:05;101074.03;;;6.45;69.03
46129;BME280;31860;45.186;5.790;2023-02-13T04:49:30;101078.28;;;6.43;68.30
46129;BME280;31860;45.186;5.790;2023-02-13T04:51:56;101077.34;;;6.41;68.27
46129;BME280;31860;45.186;5.790;2023-02-13T04:54:21;101074.56;;;6.38;68.45
46129;BME280;31860;45.186;5.790;2023-02-13T04:56:46;101069.25;;;6.35;68.43
46129;BME280;31860;45.186;5.790;2023-02-13T04:59:12;101085.63;;;6.34;69.51
46129;BME280;31860;45.186;5.790;2023-02-13T05:01:37;101079.47;;;6.32;69.76
46129;BME280;31860;45.186;5.790;2023-02-13T05:04:03;101084.66;;;6.32;70.04
46129;BME280;31860;45.186;5.790;2023-02-13T05:06:28;101090.75;;;6.32;70.31
46129;BME280;31860;45.186;5.790;2023-02-13T05:08:53;101084.66;;;6.32;71.19
46129;BME280;31860;45.186;5.790;2023-02-13T05:11:19;101091.72;;;6.34;71.61
46129;BME280;31860;45.186;5.790;2023-02-13T05:13:44;101088.09;;;6.31;71.57
46129;BME280;31860;45.186;5.790;2023-02-13T05:16:09;101088.88;;;6.30;71.11
46129;BME280;31860;45.186;5.790;2023-02-13T05:18:35;101083.56;;;6.27;71.25
46129;BME280;31860;45.186;5.790;2023-02-13T05:21:00;101088.69;;;6.25;72.21
46129;BME280;31860;45.186;5.790;2023-02-13T05:23:44;101080.97;;;6.27;72.28
46129;BME280;31860;45.186;5.790;2023-02-13T05:26:09;101075.78;;;6.27;72.82
46129;BME280;31860;45.186;5.790;2023-02-13T05:28:35;101082.00;;;6.30;72.68
46129;BME280;31860;45.186;5.790;2023-02-13T05:31:19;101081.88;;;6.27;72.53
46129;BME280;31860;45.186;5.790;2023-02-13T05:33:44;101076.44;;;6.23;72.33
46129;BME280;31860;45.186;5.790;2023-02-13T05:36:09;101077.28;;;6.22;72.25
46129;BME280;31860;45.186;5.790;2023-02-13T05:38:35;101072.88;;;6.21;72.54
46129;BME280;31860;45.186;5.790;2023-02-13T05:41:00;101078.97;;;6.21;72.52
46129;BME280;31860;45.186;5.790;2023-02-13T05:43:27;101076.38;;;6.21;72.81
46129;BME280;31860;45.186;5.790;2023-02-13T05:46:06;101076.31;;;6.20;72.87
46129;BME280;31860;45.186;5.790;2023-02-13T05:48:32;101083.94;;;6.17;72.35
46129;BME280;31860;45.186;5.790;2023-02-13T05:50:57;101082.09;;;6.14;72.35
46129;BME280;31860;45.186;5.790;2023-02-13T05:53:23;101075.06;;;6.12;72.88
46129;BME280;31860;45.186;5.790;2023-02-13T05:55:48;101083.56;;;6.09;72.61
46129;BME280;31860;45.186;5.790;2023-02-13T05:58:17;101080.16;;;6.10;74.16
46129;BME280;31860;45.186;5.790;2023-02-13T06:00:43;101078.47;;;6.11;74.07
46129;BME280;31860;45.186;5.790;2023-02-13T06:03:08;101083.78;;;6.14;74.04
46129;BME280;31860;45.186;5.790;2023-02-13T06:05:34;101080.25;;;6.12;74.30
46129;BME280;31860;45.186;5.790;2023-02-13T06:07:59;101090.69;;;6.13;74.12
46129;BME280;31860;45.186;5.790;2023-02-13T06:10:24;101092.41;;;6.13;73.48
46129;BME280;31860;45.186;5.790;2023-02-13T06:12:50;101094.16;;;6.14;72.95
46129;BME280;31860;45.186;5.790;2023-02-13T06:15:15;101090.53;;;6.10;72.65
46129;BME280;31860;45.186;5.790;2023-02-13T06:17:40;101092.25;;;6.10;72.67
46129;BME280;31860;45.186;5.790;2023-02-13T06:20:06;101090.63;;;6.12;72.18
46129;BME280;31860;45.186;5.790;2023-02-13T06:22:32;101086.25;;;6.11;72.65
46129;BME280;31860;45.186;5.790;2023-02-13T06:24:57;101100.03;;;6.10;72.53
46129;BME280;31860;45.186;5.790;2023-02-13T06:27:22;101097.38;;;6.08;72.50
46129;BME280;31860;45.186;5.790;2023-02-13T06:29:48;101093.81;;;6.06;72.29
46129;BME280;31860;45.186;5.790;2023-02-13T06:32:13;101103.34;;;6.07;72.74
46129;BME280;31860;45.186;5.790;2023-02-13T06:34:38;101093.06;;;6.09;72.54
46129;BME280;31860;45.186;5.790;2023-02-13T06:37:04;101100.09;;;6.11;72.76
46129;BME280;31860;45.186;5.790;2023-02-13T06:39:29;101101.22;;;6.16;72.32
46129;BME280;31860;45.186;5.790;2023-02-13T06:41:54;101110.03;;;6.20;71.88
46129;BME280;31860;45.186;5.790;2023-02-13T06:44:20;101105.81;;;6.22;71.56
46129;BME280;31860;45.186;5.790;2023-02-13T06:46:45;101108.34;;;6.20;71.26
46129;BME280;31860;45.186;5.790;2023-02-13T06:49:10;101108.09;;;6.16;71.70
46129;BME280;31860;45.186;5.790;2023-02-13T06:51:36;101117.53;;;6.14;71.30
46129;BME280;31860;45.186;5.790;2023-02-13T06:54:01;101128.72;;;6.13;71.06
46129;BME280;31860;45.186;5.790;2023-02-13T06:56:26;101120.78;;;6.10;71.35
46129;BME280;31860;45.186;5.790;2023-02-13T06:58:52;101122.63;;;6.12;71.72
46129;BME280;31860;45.186;5.790;2023-02-13T07:01:17;101127.66;;;6.09;72.12
46129;BME280;31860;45.186;5.790;2023-02-13T07:03:43;101128.41;;;6.07;72.59
46129;BME280;31860;45.186;5.790;2023-02-13T07:06:08;101137.91;;;6.06;71.94
46129;BME280;31860;45.186;5.790;2023-02-13T07:08:33;101140.34;;;6.03;72.05
46129;BME280;31860;45.186;5.790;2023-02-13T07:10:59;101141.16;;;6.02;72.94
46129;BME280;31860;45.186;5.790;2023-02-13T07:13:24;101139.44;;;6.03;73.73
46129;BME280;31860;45.186;5.790;2023-02-13T07:15:50;101135.31;;;6.06;73.56
46129;BME280;31860;45.186;5.790;2023-02-13T07:18:15;101133.44;;;6.04;73.48
46129;BME280;31860;45.186;5.790;2023-02-13T07:20:40;101144.47;;;6.00;73.06
46129;BME280;31860;45.186;5.790;2023-02-13T07:23:06;101145.22;;;5.97;72.89
46129;BME280;31860;45.186;5.790;2023-02-13T07:25:32;101141.81;;;5.98;72.76
46129;BME280;31860;45.186;5.790;2023-02-13T07:28:05;101146.13;;;5.98;73.51
46129;BME280;31860;45.186;5.790;2023-02-13T07:30:31;101150.50;;;5.99;73.16
46129;BME280;31860;45.186;5.790;2023-02-13T07:33:01;101148.72;;;5.98;72.97
46129;BME280;31860;45.186;5.790;2023-02-13T07:35:27;101153.16;;;6.00;73.02
46129;BME280;31860;45.186;5.790;2023-02-13T07:37:53;101148.88;;;6.01;72.85
46129;BME280;31860;45.186;5.790;2023-02-13T07:40:19;101154.94;;;6.01;73.07
46129;BME280;31860;45.186;5.790;2023-02-13T07:42:45;101156.50;;;5.98;73.25
46129;BME280;31860;45.186;5.790;2023-02-13T07:45:10;101156.50;;;5.98;72.96
46129;BME280;31860;45.186;5.790;2023-02-13T07:47:36;101159.91;;;5.97;73.04
46129;BME280;31860;45.186;5.790;2023-02-13T07:50:02;101155.59;;;5.97;72.70
46129;BME280;31860;45.186;5.790;2023-02-13T07:52:30;101154.84;;;6.00;72.83
46129;BME280;31860;45.186;5.790;2023-02-13T07:54:56;101160.19;;;6.03;72.35
46129;BME280;31860;45.186;5.790;2023-02-13T07:57:21;101156.94;;;6.07;72.46
46129;BME280;31860;45.186;5.790;2023-02-13T07:59:47;101164.81;;;6.08;72.34
46129;BME280;31860;45.186;5.790;2023-02-13T08:02:13;101155.22;;;6.07;72.41
46129;BME280;31860;45.186;5.790;2023-02-13T08:04:39;101155.31;;;6.09;72.06
46129;BME280;31860;45.186;5.790;2023-02-13T08:07:05;101159.69;;;6.10;73.06
46129;BME280;31860;45.186;5.790;2023-02-13T08:09:31;101158.72;;;6.08;73.16
46129;BME280;31860;45.186;5.790;2023-02-13T08:12:15;101156.19;;;6.09;73.17
46129;BME280;31860;45.186;5.790;2023-02-13T08:14:40;101164.94;;;6.11;72.79
46129;BME280;31860;45.186;5.790;2023-02-13T08:17:05;101158.19;;;6.15;73.40
46129;BME280;31860;45.186;5.790;2023-02-13T08:19:31;101154.28;;;6.23;73.88
46129;BME280;31860;45.186;5.790;2023-02-13T08:21:56;101157.69;;;6.39;73.80
46129;BME280;31860;45.186;5.790;2023-02-13T08:24:22;101156.59;;;6.52;73.48
46129;BME280;31860;45.186;5.790;2023-02-13T08:26:47;101157.38;;;6.68;72.89
46129;BME280;31860;45.186;5.790;2023-02-13T08:29:13;101149.41;;;6.83;73.19
46129;BME280;31860;45.186;5.790;2023-02-13T08:31:38;101154.50;;;6.99;71.92
46129;BME280;31860;45.186;5.790;2023-02-13T08:34:04;101144.63;;;7.11;71.23
46129;BME280;31860;45.186;5.790;2023-02-13T08:36:30;101143.56;;;7.25;70.74
46129;BME280;31860;45.186;5.790;2023-02-13T08:38:55;101137.13;;;7.36;70.35
46129;BME280;31860;45.186;5.790;2023-02-13T08:41:21;101142.78;;;7.47;70.58
46129;BME280;31860;45.186;5.790;2023-02-13T08:43:50;101143.25;;;7.57;70.79
46129;BME280;31860;45.186;5.790;2023-02-13T08:46:16;101139.47;;;7.70;70.78
46129;BME280;31860;45.186;5.790;2023-02-13T08:48:42;101135.28;;;7.74;69.20
46129;BME280;31860;45.186;5.790;2023-02-13T08:51:10;101139.16;;;7.83;68.23
46129;BME280;31860;45.186;5.790;2023-02-13T08:53:37;101140.31;;;7.90;68.03
46129;BME280;31860;45.186;5.790;2023-02-13T08:56:03;101138.09;;;7.99;67.02
46129;BME280;31860;45.186;5.790;2023-02-13T08:58:28;101132.47;;;8.09;66.91
46129;BME280;31860;45.186;5.790;2023-02-13T09:00:54;101131.03;;;8.17;67.14
46129;BME280;31860;45.186;5.790;2023-02-13T09:03:20;101130.34;;;8.21;66.16
46129;BME280;31860;45.186;5.790;2023-02-13T09:05:45;101136.44;;;8.21;65.50
46129;BME280;31860;45.186;5.790;2023-02-13T09:08:12;101126.22;;;8.26;66.01
46129;BME280;31860;45.186;5.790;2023-02-13T09:10:38;101135.06;;;8.29;65.68
46129;BME280;31860;45.186;5.790;2023-02-13T09:13:04;101129.97;;;8.32;65.38
46129;BME280;31860;45.186;5.790;2023-02-13T09:15:30;101125.78;;;8.36;65.14
46129;BME280;31860;45.186;5.790;2023-02-13T09:17:56;101125.06;;;8.40;64.45
46129;BME280;31860;45.186;5.790;2023-02-13T09:20:22;101126.94;;;8.42;64.23
46129;BME280;31860;45.186;5.790;2023-02-13T09:22:47;101125.28;;;8.44;63.33
46129;BME280;31860;45.186;5.790;2023-02-13T09:25:13;101119.28;;;8.47;63.25
46129;BME280;31860;45.186;5.790;2023-02-13T09:27:38;101118.72;;;8.54;63.36
46129;BME280;31860;45.186;5.790;2023-02-13T09:30:05;101122.44;;;8.60;64.05
46129;BME280;31860;45.186;5.790;2023-02-13T09:32:31;101120.13;;;8.68;63.59
46129;BME280;31860;45.186;5.790;2023-02-13T09:34:58;101115.09;;;8.73;63.50
46129;BME280;31860;45.186;5.790;2023-02-13T09:37:24;101122.19;;;8.77;62.96
46129;BME280;31860;45.186;5.790;2023-02-13T09:39:51;101113.66;;;8.81;62.82
46129;BME280;31860;45.186;5.790;2023-02-13T09:42:28;101112.84;;;8.82;62.48
46129;BME280;31860;45.186;5.790;2023-02-13T09:44:59;101114.69;;;8.84;62.40
46129;BME280;31860;45.186;5.790;2023-02-13T09:47:31;101107.69;;;8.83;61.85
46129;BME280;31860;45.186;5.790;2023-02-13T09:50:12;101109.47;;;8.84;61.24
46129;BME280;31860;45.186;5.790;2023-02-13T09:52:39;101106.00;;;8.85;60.83
46129;BME280;31860;45.186;5.790;2023-02-13T09:55:15;101113.13;;;8.89;60.81
46129;BME280;31860;45.186;5.790;2023-02-13T10:00:42;101105.63;;;8.98;60.55
46129;BME280;31860;45.186;5.790;2023-02-13T10:05:52;101098.94;;;9.05;59.54
46129;BME280;31860;45.186;5.790;2023-02-13T10:14:42;101081.41;;;9.24;58.64
46129;BME280;31860;45.186;5.790;2023-02-13T10:17:37;101093.09;;;9.35;58.34
46129;BME280;31860;45.186;5.790;2023-02-13T10:20:15;101084.69;;;9.42;57.71
46129;BME280;31860;45.186;5.790;2023-02-13T10:22:51;101080.53;;;9.49;57.09
46129;BME280;31860;45.186;5.790;2023-02-13T10:25:27;101077.38;;;9.57;56.90
46129;BME280;31860;45.186;5.790;2023-02-13T10:27:58;101075.06;;;9.67;56.92
46129;BME280;31860;45.186;5.790;2023-02-13T10:30:32;101074.47;;;9.75;56.79
46129;BME280;31860;45.186;5.790;2023-02-13T10:35:52;101072.03;;;10.05;55.69
46129;BME280;31860;45.186;5.790;2023-02-13T10:38:22;101068.13;;;10.19;55.69
46129;BME280;31860;45.186;5.790;2023-02-13T10:41:29;101061.72;;;10.36;54.37
46129;BME280;31860;45.186;5.790;2023-02-13T10:53:06;101042.03;;;11.06;52.23
46129;BME280;31860;45.186;5.790;2023-02-13T10:58:21;101034.38;;;11.45;50.86
46129;BME280;31860;45.186;5.790;2023-02-13T11:01:09;101032.19;;;11.62;49.99
46129;BME280;31860;45.186;5.790;2023-02-13T11:03:39;101034.28;;;11.75;50.84
46129;BME280;31860;45.186;5.790;2023-02-13T11:06:07;101031.16;;;11.88;50.23
46129;BME280;31860;45.186;5.790;2023-02-13T11:08:42;101027.09;;;12.00;49.10
46129;BME280;31860;45.186;5.790;2023-02-13T11:11:32;101022.94;;;12.10;48.29
46129;BME280;31860;45.186;5.790;2023-02-13T11:14:10;101017.06;;;12.20;48.38
46129;BME280;31860;45.186;5.790;2023-02-13T11:19:19;101016.53;;;12.34;48.54
46129;BME280;31860;45.186;5.790;2023-02-13T11:21:46;101008.72;;;12.37;46.90
46129;BME280;31860;45.186;5.790;2023-02-13T11:24:22;101009.69;;;12.41;47.70
46129;BME280;31860;45.186;5.790;2023-02-13T11:27:09;101007.16;;;12.46;47.31
46129;BME280;31860;45.186;5.790;2023-02-13T11:29:51;101009.84;;;12.49;47.53
46129;BME280;31860;45.186;5.790;2023-02-13T11:32:21;101007.25;;;12.50;48.15
46129;BME280;31860;45.186;5.790;2023-02-13T11:34:48;101000.31;;;12.52;48.25
46129;BME280;31860;45.186;5.790;2023-02-13T11:39:52;100996.03;;;12.56;47.86
46129;BME280;31860;45.186;5.790;2023-02-13T11:42:31;100999.53;;;12.58;46.96
46129;BME280;31860;45.186;5.790;2023-02-13T11:45:05;100989.97;;;12.60;47.39
46129;BME280;31860;45.186;5.790;2023-02-13T11:47:40;100990.09;;;12.64;47.41
46129;BME280;31860;45.186;5.790;2023-02-13T11:50:33;100981.44;;;12.68;46.56
46129;BME280;31860;45.186;5.790;2023-02-13T11:53:06;100989.47;;;12.76;47.15
46129;BME280;31860;45.186;5.790;2023-02-13T11:55:37;100979.94;;;12.82;47.00
46129;BME280;31860;45.186;5.790;2023-02-13T11:58:24;100973.13;;;12.90;46.71
46129;BME280;31860;45.186;5.790;2023-02-13T12:00:48;100974.22;;;13.01;46.60
46129;BME280;31860;45.186;5.790;2023-02-13T12:08:27;100964.41;;;13.38;45.85
46129;BME280;31860;45.186;5.790;2023-02-13T12:10:53;100954.19;;;13.54;45.54
46129;BME280;31860;45.186;5.790;2023-02-13T12:13:26;100948.34;;;13.69;44.90
46129;BME280;31860;45.186;5.790;2023-02-13T12:16:13;100949.44;;;13.86;44.09
46129;BME280;31860;45.186;5.790;2023-02-13T12:18:46;100945.31;;;14.01;44.46
46129;BME280;31860;45.186;5.790;2023-02-13T12:28:00;100925.97;;;14.59;42.21
46129;BME280;31860;45.186;5.790;2023-02-13T12:30:51;100922.66;;;14.78;41.74
46129;BME280;31860;45.186;5.790;2023-02-13T12:36:29;100915.16;;;15.16;42.65
46129;BME280;31860;45.186;5.790;2023-02-13T12:39:14;100910.94;;;15.35;41.64
46129;BME280;31860;45.186;5.790;2023-02-13T12:44:42;100901.59;;;15.70;40.30
46129;BME280;31860;45.186;5.790;2023-02-13T12:47:21;100903.47;;;15.87;40.42
46129;BME280;31860;45.186;5.790;2023-02-13T12:52:26;100900.13;;;16.19;40.28
46129;BME280;31860;45.186;5.790;2023-02-13T13:00:24;100893.31;;;16.72;38.09
46129;BME280;31860;45.186;5.790;2023-02-13T13:14:14;100864.34;;;17.46;38.26
46129;BME280;31860;45.186;5.790;2023-02-13T13:19:39;100853.75;;;17.71;37.19
46129;BME280;31860;45.186;5.790;2023-02-13T13:22:26;100851.97;;;17.82;37.08
46129;BME280;31860;45.186;5.790;2023-02-13T13:25:17;100848.44;;;17.91;36.58
46129;BME280;31860;45.186;5.790;2023-02-13T13:28:00;100843.97;;;17.99;36.08
46129;BME280;31860;45.186;5.790;2023-02-13T13:30:34;100839.53;;;18.09;36.13
46129;BME280;31860;45.186;5.790;2023-02-13T13:33:11;100840.38;;;18.23;36.86
46129;BME280;31860;45.186;5.790;2023-02-13T13:35:41;100839.44;;;18.31;36.92
46129;BME280;31860;45.186;5.790;2023-02-13T13:38:15;100834.16;;;18.42;36.05
46129;BME280;31860;45.186;5.790;2023-02-13T13:46:56;100825.19;;;18.62;35.36
46129;BME280;31860;45.186;5.790;2023-02-13T13:49:48;100825.13;;;18.73;35.00
46129;BME280;31860;45.186;5.790;2023-02-13T13:52:32;100823.34;;;18.73;33.61
46129;BME280;31860;45.186;5.790;2023-02-13T13:54:59;100815.38;;;18.76;35.49
46129;BME280;31860;45.186;5.790;2023-02-13T14:00:28;100803.03;;;18.72;34.23
